Alexis, North Carolina
Current Conditions -  °F | °C
As of 10:15 PM on Wednesday 22 Oct 2014 (Local Time) from KIPJ Reporting Station
Clear Clear  
Wind Chill: 49°   Ceiling: Unl
Heat Index: 49°   Visibility: 10mi
Dew Point: 37°   Wind: 3mph
Humidity: 64%   Direction: 290°WNW
Pressure: 30.1"   Gusts: NA
Location:  35.4°N, 81.12°W
Report Text: KIPJ 230215Z AUTO 29003KT 10SM CLR 10/03 A3010 RMK AO2 T00950030
Loading
Personal Weather Stations






























Interactive Weather Map New forecast layout! Learn more

10-Day Weather Forecast

Advertisements
Track Severe Weather on mobile